createdAt,value
2022-11-21T00:03:06.612Z,3.63
2022-11-21T00:13:13.805Z,4.17
2022-11-21T00:23:15.452Z,5.67
2022-11-21T00:33:17.446Z,4.97
2022-11-21T00:43:19.468Z,5.70
2022-11-21T00:53:21.068Z,6.97
2022-11-21T01:03:22.680Z,6.73
2022-11-21T01:13:24.812Z,3.00
2022-11-21T01:23:27.386Z,3.13
2022-11-21T01:33:28.997Z,3.33
2022-11-21T01:43:30.674Z,2.37
2022-11-21T01:53:33.887Z,4.70
2022-11-21T02:03:38.164Z,2.03
2022-11-21T02:13:39.811Z,3.23
2022-11-21T02:23:59.153Z,3.47
2022-11-21T02:34:02.034Z,2.77
2022-11-21T02:44:09.182Z,5.30
2022-11-21T02:54:10.807Z,4.87
2022-11-21T03:04:12.433Z,7.03
2022-11-21T03:14:14.072Z,6.70
2022-11-21T03:24:15.672Z,9.57
2022-11-21T03:34:17.304Z,6.23
2022-11-21T03:44:18.924Z,10.13
2022-11-21T03:54:20.520Z,11.17
2022-11-21T04:04:22.212Z,7.57
2022-11-21T04:14:24.249Z,8.57
2022-11-21T04:24:26.687Z,6.83
2022-11-21T04:34:28.924Z,5.90
2022-11-21T04:44:30.929Z,9.37
2022-11-21T04:54:32.671Z,8.73
2022-11-21T05:04:34.310Z,5.33
2022-11-21T05:14:35.938Z,9.47
2022-11-21T05:24:37.746Z,6.67
2022-11-21T05:34:39.372Z,4.50
2022-11-21T05:44:41.413Z,6.80
2022-11-21T05:54:46.070Z,4.03
2022-11-21T06:04:47.881Z,5.93
2022-11-21T06:14:49.497Z,4.93
2022-11-21T06:24:51.115Z,4.03
2022-11-21T06:34:53.013Z,4.83
2022-11-21T06:44:54.629Z,4.00
2022-11-21T06:54:56.238Z,9.00
2022-11-21T07:04:57.936Z,4.40
2022-11-21T07:14:59.759Z,6.90
2022-11-21T07:25:01.838Z,3.40
2022-11-21T07:35:03.805Z,9.83
2022-11-21T07:45:05.785Z,5.13
2022-11-21T07:55:08.005Z,6.37
2022-11-21T08:05:09.777Z,4.63
2022-11-21T08:15:11.767Z,5.60
2022-11-21T08:25:13.841Z,3.40
2022-11-21T08:35:15.615Z,2.83
2022-11-21T08:45:17.258Z,7.57
2022-11-21T08:55:18.989Z,3.80
2022-11-21T09:05:20.688Z,4.67
2022-11-21T09:15:40.879Z,4.47
2022-11-21T09:25:43.217Z,4.53
2022-11-21T09:35:45.284Z,3.43
2022-11-21T09:45:50.088Z,4.03
2022-11-21T09:56:06.171Z,4.23
2022-11-21T10:06:20.457Z,8.33
2022-11-21T10:17:00.339Z,5.97
2022-11-21T10:27:26.047Z,7.50
2022-11-21T10:38:08.408Z,4.20
2022-11-21T10:48:10.048Z,6.07
2022-11-21T10:58:19.427Z,3.87
2022-11-21T11:08:22.091Z,4.23
2022-11-21T11:18:24.137Z,4.37
2022-11-21T11:28:36.344Z,4.03
2022-11-21T11:38:38.033Z,3.80
2022-11-21T11:48:56.623Z,4.83
2022-11-21T11:59:17.741Z,5.47
2022-11-21T12:09:34.650Z,9.03
2022-11-21T12:19:38.132Z,3.17
2022-11-21T12:30:02.021Z,4.37
2022-11-21T12:40:12.803Z,2.70
2022-11-21T12:50:46.398Z,4.50
2022-11-21T13:01:21.733Z,3.17
2022-11-21T13:12:01.173Z,2.67
2022-11-21T13:22:02.851Z,2.60
2022-11-21T13:32:43.728Z,3.73
2022-11-21T13:43:33.107Z,2.63
2022-11-21T13:53:50.050Z,3.63
2022-11-21T14:04:15.741Z,2.27
2022-11-21T14:14:49.704Z,3.40
2022-11-21T14:24:53.491Z,4.33
2022-11-21T14:35:08.606Z,3.47
2022-11-21T14:45:20.792Z,6.23
2022-11-21T14:55:31.558Z,5.10
2022-11-21T15:06:00.623Z,5.23
2022-11-21T15:15:57.381Z,6.60
2022-11-21T15:26:01.414Z,6.83
2022-11-21T15:36:13.952Z,4.83
2022-11-21T15:46:34.670Z,12.20
2022-11-21T15:56:36.470Z,11.70
2022-11-21T16:06:38.079Z,9.00
2022-11-21T16:22:23.529Z,9.03
2022-11-21T16:32:25.952Z,12.37
2022-11-21T16:42:27.660Z,13.20
2022-11-21T16:52:33.498Z,12.47
2022-11-21T17:02:37.225Z,12.20
2022-11-21T17:12:40.817Z,12.00
2022-11-21T17:22:42.520Z,9.43
2022-11-21T17:32:44.136Z,12.67
2022-11-21T17:42:47.061Z,9.20
2022-11-21T17:52:50.147Z,9.77
2022-11-21T18:02:51.969Z,15.37
2022-11-21T18:12:53.706Z,10.77
2022-11-21T18:22:55.461Z,14.83
2022-11-21T18:32:57.192Z,21.87
2022-11-21T18:42:58.829Z,26.00
2022-11-21T18:53:00.447Z,14.73
2022-11-21T19:03:02.059Z,16.20
2022-11-21T19:13:04.132Z,13.53
2022-11-21T19:23:06.291Z,16.37
2022-11-21T19:33:08.089Z,9.73
2022-11-21T19:43:09.728Z,12.77
2022-11-21T19:53:11.524Z,11.47
2022-11-21T20:03:13.201Z,12.00
2022-11-21T20:13:14.819Z,10.57
2022-11-21T20:23:16.458Z,11.90
2022-11-21T20:33:18.544Z,12.13
2022-11-21T20:43:20.182Z,13.73
2022-11-21T20:53:51.392Z,11.87
2022-11-21T21:03:43.724Z,12.53
2022-11-21T21:13:47.140Z,14.93
2022-11-21T21:24:03.282Z,18.60
2022-11-21T21:34:05.324Z,16.63
2022-11-21T21:44:07.277Z,16.00
2022-11-21T21:54:18.610Z,16.17
2022-11-21T22:04:20.322Z,13.97
2022-11-21T22:14:21.968Z,13.20
2022-11-21T22:24:25.815Z,11.53
2022-11-21T22:34:28.681Z,12.70
2022-11-21T22:44:30.866Z,10.67
2022-11-21T22:54:32.704Z,12.90
2022-11-21T23:04:34.740Z,12.33
2022-11-21T23:14:36.748Z,9.10
2022-11-21T23:24:38.344Z,9.93
2022-11-21T23:34:39.952Z,13.87
2022-11-21T23:44:41.578Z,12.90
2022-11-21T23:54:43.205Z,8.03
